sensor_id;sensor_type;location;lat;lon;timestamp;P1;durP1;ratioP1;P2;durP2;ratioP2
54143;SDS011;40050;47.324;18.792;2023-08-07T00:00:26;0.39;;;0.40;;
54143;SDS011;40050;47.324;18.792;2023-08-07T00:02:22;0.39;;;0.20;;
54143;SDS011;40050;47.324;18.792;2023-08-07T00:04:23;0.58;;;0.20;;
54143;SDS011;40050;47.324;18.792;2023-08-07T00:06:24;0.68;;;0.20;;
54143;SDS011;40050;47.324;18.792;2023-08-07T00:08:25;0.19;;;0.20;;
54143;SDS011;40050;47.324;18.792;2023-08-07T00:10:26;0.97;;;0.30;;
54143;SDS011;40050;47.324;18.792;2023-08-07T00:12:27;0.39;;;0.30;;
54143;SDS011;40050;47.324;18.792;2023-08-07T00:14:28;0.39;;;0.30;;
54143;SDS011;40050;47.324;18.792;2023-08-07T00:16:29;0.39;;;0.30;;
54143;SDS011;40050;47.324;18.792;2023-08-07T00:18:31;0.39;;;0.40;;
54143;SDS011;40050;47.324;18.792;2023-08-07T00:20:31;2.42;;;0.40;;
54143;SDS011;40050;47.324;18.792;2023-08-07T00:22:32;0.68;;;0.30;;
54143;SDS011;40050;47.324;18.792;2023-08-07T00:24:33;0.29;;;0.20;;
54143;SDS011;40050;47.324;18.792;2023-08-07T00:26:34;0.19;;;0.20;;
54143;SDS011;40050;47.324;18.792;2023-08-07T00:28:35;0.87;;;0.30;;
54143;SDS011;40050;47.324;18.792;2023-08-07T00:30:37;0.39;;;0.30;;
54143;SDS011;40050;47.324;18.792;2023-08-07T00:32:38;0.29;;;0.30;;
54143;SDS011;40050;47.324;18.792;2023-08-07T00:34:38;0.29;;;0.30;;
54143;SDS011;40050;47.324;18.792;2023-08-07T00:36:39;0.97;;;0.20;;
54143;SDS011;40050;47.324;18.792;2023-08-07T00:38:40;0.39;;;0.30;;
54143;SDS011;40050;47.324;18.792;2023-08-07T00:40:42;0.29;;;0.30;;
54143;SDS011;40050;47.324;18.792;2023-08-07T00:42:43;0.29;;;0.30;;
54143;SDS011;40050;47.324;18.792;2023-08-07T00:44:44;0.29;;;0.30;;
54143;SDS011;40050;47.324;18.792;2023-08-07T00:46:45;2.13;;;0.30;;
54143;SDS011;40050;47.324;18.792;2023-08-07T00:48:47;0.87;;;0.30;;
54143;SDS011;40050;47.324;18.792;2023-08-07T00:50:48;0.29;;;0.30;;
54143;SDS011;40050;47.324;18.792;2023-08-07T00:52:49;0.39;;;0.30;;
54143;SDS011;40050;47.324;18.792;2023-08-07T00:54:50;1.46;;;0.30;;
54143;SDS011;40050;47.324;18.792;2023-08-07T00:56:52;0.49;;;0.30;;
54143;SDS011;40050;47.324;18.792;2023-08-07T00:58:53;0.29;;;0.30;;
54143;SDS011;40050;47.324;18.792;2023-08-07T01:00:54;0.29;;;0.30;;
54143;SDS011;40050;47.324;18.792;2023-08-07T01:02:55;0.87;;;0.50;;
54143;SDS011;40050;47.324;18.792;2023-08-07T01:04:57;0.29;;;0.30;;
54143;SDS011;40050;47.324;18.792;2023-08-07T01:06:58;0.29;;;0.30;;
54143;SDS011;40050;47.324;18.792;2023-08-07T01:08:59;0.29;;;0.30;;
54143;SDS011;40050;47.324;18.792;2023-08-07T01:15:35;0.29;;;0.30;;
54143;SDS011;40050;47.324;18.792;2023-08-07T01:17:45;0.29;;;0.30;;
54143;SDS011;40050;47.324;18.792;2023-08-07T01:19:56;0.49;;;0.30;;
54143;SDS011;40050;47.324;18.792;2023-08-07T01:22:09;0.39;;;0.30;;
54143;SDS011;40050;47.324;18.792;2023-08-07T01:23:57;0.39;;;0.30;;
54143;SDS011;40050;47.324;18.792;2023-08-07T01:25:58;1.66;;;0.40;;
54143;SDS011;40050;47.324;18.792;2023-08-07T01:28:08;2.14;;;0.40;;
54143;SDS011;40050;47.324;18.792;2023-08-07T01:30:21;3.02;;;0.40;;
54143;SDS011;40050;47.324;18.792;2023-08-07T01:32:21;0.39;;;0.30;;
54143;SDS011;40050;47.324;18.792;2023-08-07T01:34:21;1.56;;;0.40;;
54143;SDS011;40050;47.324;18.792;2023-08-07T01:36:25;1.95;;;0.40;;
54143;SDS011;40050;47.324;18.792;2023-08-07T01:38:26;1.17;;;0.30;;
54143;SDS011;40050;47.324;18.792;2023-08-07T01:40:28;0.58;;;0.30;;
54143;SDS011;40050;47.324;18.792;2023-08-07T01:42:29;0.29;;;0.30;;
54143;SDS011;40050;47.324;18.792;2023-08-07T01:44:30;5.35;;;0.40;;
54143;SDS011;40050;47.324;18.792;2023-08-07T01:46:32;0.58;;;0.40;;
54143;SDS011;40050;47.324;18.792;2023-08-07T01:48:33;0.29;;;0.30;;
54143;SDS011;40050;47.324;18.792;2023-08-07T01:50:34;0.29;;;0.30;;
54143;SDS011;40050;47.324;18.792;2023-08-07T01:52:36;0.78;;;0.20;;
54143;SDS011;40050;47.324;18.792;2023-08-07T01:54:36;0.39;;;0.30;;
54143;SDS011;40050;47.324;18.792;2023-08-07T01:56:37;3.03;;;0.30;;
54143;SDS011;40050;47.324;18.792;2023-08-07T01:58:38;0.29;;;0.30;;
54143;SDS011;40050;47.324;18.792;2023-08-07T02:00:40;1.46;;;0.30;;
54143;SDS011;40050;47.324;18.792;2023-08-07T02:02:40;0.39;;;0.30;;
54143;SDS011;40050;47.324;18.792;2023-08-07T02:04:41;0.39;;;0.30;;
54143;SDS011;40050;47.324;18.792;2023-08-07T02:06:42;0.39;;;0.30;;
54143;SDS011;40050;47.324;18.792;2023-08-07T02:08:43;0.39;;;0.30;;
54143;SDS011;40050;47.324;18.792;2023-08-07T02:10:44;0.39;;;0.30;;
54143;SDS011;40050;47.324;18.792;2023-08-07T02:12:46;1.07;;;0.30;;
54143;SDS011;40050;47.324;18.792;2023-08-07T02:14:47;1.76;;;0.30;;
54143;SDS011;40050;47.324;18.792;2023-08-07T02:16:48;0.59;;;0.30;;
54143;SDS011;40050;47.324;18.792;2023-08-07T02:18:49;1.07;;;0.30;;
54143;SDS011;40050;47.324;18.792;2023-08-07T02:20:50;0.88;;;0.30;;
54143;SDS011;40050;47.324;18.792;2023-08-07T02:22:51;1.95;;;0.30;;
54143;SDS011;40050;47.324;18.792;2023-08-07T02:24:52;2.05;;;0.30;;
54143;SDS011;40050;47.324;18.792;2023-08-07T02:26:52;0.78;;;0.30;;
54143;SDS011;40050;47.324;18.792;2023-08-07T02:28:53;0.49;;;0.30;;
54143;SDS011;40050;47.324;18.792;2023-08-07T02:30:54;0.39;;;0.30;;
54143;SDS011;40050;47.324;18.792;2023-08-07T02:32:55;0.49;;;0.30;;
54143;SDS011;40050;47.324;18.792;2023-08-07T02:34:56;0.29;;;0.30;;
54143;SDS011;40050;47.324;18.792;2023-08-07T02:36:57;1.37;;;0.30;;
54143;SDS011;40050;47.324;18.792;2023-08-07T02:38:58;0.49;;;0.30;;
54143;SDS011;40050;47.324;18.792;2023-08-07T02:40:59;0.98;;;0.40;;
54143;SDS011;40050;47.324;18.792;2023-08-07T02:43:00;0.29;;;0.30;;
54143;SDS011;40050;47.324;18.792;2023-08-07T02:45:01;0.29;;;0.30;;
54143;SDS011;40050;47.324;18.792;2023-08-07T02:47:01;0.59;;;0.30;;
54143;SDS011;40050;47.324;18.792;2023-08-07T02:49:02;0.29;;;0.30;;
54143;SDS011;40050;47.324;18.792;2023-08-07T02:51:03;0.49;;;0.40;;
54143;SDS011;40050;47.324;18.792;2023-08-07T02:53:04;0.49;;;0.50;;
54143;SDS011;40050;47.324;18.792;2023-08-07T02:55:05;0.59;;;0.30;;
54143;SDS011;40050;47.324;18.792;2023-08-07T02:57:06;0.68;;;0.40;;
54143;SDS011;40050;47.324;18.792;2023-08-07T02:59:07;0.39;;;0.40;;
54143;SDS011;40050;47.324;18.792;2023-08-07T03:01:08;0.29;;;0.30;;
54143;SDS011;40050;47.324;18.792;2023-08-07T03:03:09;0.49;;;0.30;;
54143;SDS011;40050;47.324;18.792;2023-08-07T03:05:10;0.29;;;0.30;;
54143;SDS011;40050;47.324;18.792;2023-08-07T03:07:11;0.29;;;0.30;;
54143;SDS011;40050;47.324;18.792;2023-08-07T03:09:11;1.36;;;0.40;;
54143;SDS011;40050;47.324;18.792;2023-08-07T03:11:12;0.58;;;0.40;;
54143;SDS011;40050;47.324;18.792;2023-08-07T03:13:13;0.29;;;0.30;;
54143;SDS011;40050;47.324;18.792;2023-08-07T03:15:14;0.49;;;0.40;;
54143;SDS011;40050;47.324;18.792;2023-08-07T03:17:16;0.68;;;0.40;;
54143;SDS011;40050;47.324;18.792;2023-08-07T03:19:17;0.49;;;0.40;;
54143;SDS011;40050;47.324;18.792;2023-08-07T03:21:18;1.17;;;0.40;;
54143;SDS011;40050;47.324;18.792;2023-08-07T03:23:19;0.39;;;0.40;;
54143;SDS011;40050;47.324;18.792;2023-08-07T03:25:20;0.29;;;0.30;;
54143;SDS011;40050;47.324;18.792;2023-08-07T03:27:21;1.55;;;0.60;;
54143;SDS011;40050;47.324;18.792;2023-08-07T03:29:21;0.87;;;0.40;;
54143;SDS011;40050;47.324;18.792;2023-08-07T03:31:22;0.39;;;0.30;;
54143;SDS011;40050;47.324;18.792;2023-08-07T03:33:23;1.46;;;0.40;;
54143;SDS011;40050;47.324;18.792;2023-08-07T03:35:24;0.58;;;0.40;;
54143;SDS011;40050;47.324;18.792;2023-08-07T03:37:25;0.39;;;0.40;;
54143;SDS011;40050;47.324;18.792;2023-08-07T03:39:26;2.23;;;0.50;;
54143;SDS011;40050;47.324;18.792;2023-08-07T03:41:27;0.49;;;0.40;;
54143;SDS011;40050;47.324;18.792;2023-08-07T03:43:28;1.26;;;0.50;;
54143;SDS011;40050;47.324;18.792;2023-08-07T03:45:29;0.39;;;0.40;;
54143;SDS011;40050;47.324;18.792;2023-08-07T03:47:30;0.68;;;0.40;;
54143;SDS011;40050;47.324;18.792;2023-08-07T03:49:30;2.42;;;0.40;;
54143;SDS011;40050;47.324;18.792;2023-08-07T03:51:35;1.75;;;0.50;;
54143;SDS011;40050;47.324;18.792;2023-08-07T03:53:36;1.36;;;0.40;;
54143;SDS011;40050;47.324;18.792;2023-08-07T03:55:37;2.33;;;0.40;;
54143;SDS011;40050;47.324;18.792;2023-08-07T03:57:38;1.94;;;0.50;;
54143;SDS011;40050;47.324;18.792;2023-08-07T03:59:39;0.97;;;0.50;;
54143;SDS011;40050;47.324;18.792;2023-08-07T04:01:40;0.58;;;0.40;;
54143;SDS011;40050;47.324;18.792;2023-08-07T04:03:41;1.45;;;0.40;;
54143;SDS011;40050;47.324;18.792;2023-08-07T04:05:42;1.16;;;0.40;;
54143;SDS011;40050;47.324;18.792;2023-08-07T04:07:43;0.39;;;0.40;;
54143;SDS011;40050;47.324;18.792;2023-08-07T04:09:44;2.52;;;0.40;;
54143;SDS011;40050;47.324;18.792;2023-08-07T04:11:45;1.26;;;0.40;;
54143;SDS011;40050;47.324;18.792;2023-08-07T04:13:46;0.87;;;0.40;;
54143;SDS011;40050;47.324;18.792;2023-08-07T04:15:47;1.26;;;0.50;;
54143;SDS011;40050;47.324;18.792;2023-08-07T04:17:48;0.39;;;0.30;;
54143;SDS011;40050;47.324;18.792;2023-08-07T04:19:49;0.68;;;0.40;;
54143;SDS011;40050;47.324;18.792;2023-08-07T04:21:50;0.39;;;0.40;;
54143;SDS011;40050;47.324;18.792;2023-08-07T04:23:51;2.04;;;0.50;;
54143;SDS011;40050;47.324;18.792;2023-08-07T04:25:52;0.87;;;0.40;;
54143;SDS011;40050;47.324;18.792;2023-08-07T04:27:53;0.48;;;0.50;;
54143;SDS011;40050;47.324;18.792;2023-08-07T04:29:55;1.16;;;0.40;;
54143;SDS011;40050;47.324;18.792;2023-08-07T04:31:56;1.45;;;0.40;;
54143;SDS011;40050;47.324;18.792;2023-08-07T04:33:57;0.48;;;0.50;;
54143;SDS011;40050;47.324;18.792;2023-08-07T04:35:58;1.84;;;0.40;;
54143;SDS011;40050;47.324;18.792;2023-08-07T04:37:59;0.48;;;0.40;;
54143;SDS011;40050;47.324;18.792;2023-08-07T04:40:00;2.23;;;0.50;;
54143;SDS011;40050;47.324;18.792;2023-08-07T04:42:01;0.48;;;0.40;;
54143;SDS011;40050;47.324;18.792;2023-08-07T04:44:01;1.65;;;0.60;;
54143;SDS011;40050;47.324;18.792;2023-08-07T04:46:02;0.97;;;0.50;;
54143;SDS011;40050;47.324;18.792;2023-08-07T04:48:03;3.39;;;1.29;;
54143;SDS011;40050;47.324;18.792;2023-08-07T04:50:04;3.98;;;0.60;;
54143;SDS011;40050;47.324;18.792;2023-08-07T04:52:05;1.26;;;0.50;;
54143;SDS011;40050;47.324;18.792;2023-08-07T04:54:06;1.07;;;0.40;;
54143;SDS011;40050;47.324;18.792;2023-08-07T04:56:07;0.58;;;0.50;;
54143;SDS011;40050;47.324;18.792;2023-08-07T04:58:08;0.48;;;0.40;;
54143;SDS011;40050;47.324;18.792;2023-08-07T05:00:09;0.58;;;0.40;;
54143;SDS011;40050;47.324;18.792;2023-08-07T05:02:10;1.07;;;0.50;;
54143;SDS011;40050;47.324;18.792;2023-08-07T05:04:10;3.39;;;0.70;;
54143;SDS011;40050;47.324;18.792;2023-08-07T05:06:11;0.78;;;0.60;;
54143;SDS011;40050;47.324;18.792;2023-08-07T05:08:12;0.58;;;0.50;;
54143;SDS011;40050;47.324;18.792;2023-08-07T05:10:14;0.78;;;0.50;;
54143;SDS011;40050;47.324;18.792;2023-08-07T05:12:14;1.84;;;0.50;;
54143;SDS011;40050;47.324;18.792;2023-08-07T05:14:15;0.39;;;0.40;;
54143;SDS011;40050;47.324;18.792;2023-08-07T05:16:18;1.84;;;0.50;;
54143;SDS011;40050;47.324;18.792;2023-08-07T05:18:19;0.78;;;0.40;;
54143;SDS011;40050;47.324;18.792;2023-08-07T05:20:19;0.87;;;0.50;;
54143;SDS011;40050;47.324;18.792;2023-08-07T05:22:20;1.07;;;0.50;;
54143;SDS011;40050;47.324;18.792;2023-08-07T05:24:21;2.33;;;0.60;;
54143;SDS011;40050;47.324;18.792;2023-08-07T05:26:22;1.07;;;0.60;;
54143;SDS011;40050;47.324;18.792;2023-08-07T05:28:23;0.49;;;0.40;;
54143;SDS011;40050;47.324;18.792;2023-08-07T05:30:24;1.07;;;0.60;;
54143;SDS011;40050;47.324;18.792;2023-08-07T05:32:25;1.56;;;0.60;;
54143;SDS011;40050;47.324;18.792;2023-08-07T05:34:26;0.88;;;0.40;;
54143;SDS011;40050;47.324;18.792;2023-08-07T05:36:27;1.56;;;0.60;;
54143;SDS011;40050;47.324;18.792;2023-08-07T05:38:28;0.98;;;0.50;;
54143;SDS011;40050;47.324;18.792;2023-08-07T05:40:29;1.37;;;0.50;;
54143;SDS011;40050;47.324;18.792;2023-08-07T05:42:30;1.27;;;0.40;;
54143;SDS011;40050;47.324;18.792;2023-08-07T05:44:31;0.68;;;0.50;;
54143;SDS011;40050;47.324;18.792;2023-08-07T05:46:31;1.85;;;0.50;;
54143;SDS011;40050;47.324;18.792;2023-08-07T05:48:32;0.88;;;0.60;;
54143;SDS011;40050;47.324;18.792;2023-08-07T05:50:33;0.88;;;0.40;;
54143;SDS011;40050;47.324;18.792;2023-08-07T05:52:35;3.13;;;0.50;;
54143;SDS011;40050;47.324;18.792;2023-08-07T05:54:36;1.86;;;0.50;;
54143;SDS011;40050;47.324;18.792;2023-08-07T05:56:37;2.25;;;0.60;;
54143;SDS011;40050;47.324;18.792;2023-08-07T05:58:37;1.18;;;0.40;;
54143;SDS011;40050;47.324;18.792;2023-08-07T06:00:39;1.57;;;0.40;;
54143;SDS011;40050;47.324;18.792;2023-08-07T06:02:40;0.39;;;0.40;;
54143;SDS011;40050;47.324;18.792;2023-08-07T06:04:41;2.06;;;0.50;;
54143;SDS011;40050;47.324;18.792;2023-08-07T06:06:42;0.59;;;0.50;;
54143;SDS011;40050;47.324;18.792;2023-08-07T06:08:42;1.38;;;0.40;;
54143;SDS011;40050;47.324;18.792;2023-08-07T06:10:43;0.49;;;0.40;;
54143;SDS011;40050;47.324;18.792;2023-08-07T06:12:44;0.98;;;0.40;;
54143;SDS011;40050;47.324;18.792;2023-08-07T06:14:45;1.57;;;0.50;;
54143;SDS011;40050;47.324;18.792;2023-08-07T06:16:46;0.69;;;0.40;;
54143;SDS011;40050;47.324;18.792;2023-08-07T06:18:47;1.38;;;0.40;;
54143;SDS011;40050;47.324;18.792;2023-08-07T06:20:48;1.38;;;0.60;;
54143;SDS011;40050;47.324;18.792;2023-08-07T06:22:49;1.28;;;0.40;;
54143;SDS011;40050;47.324;18.792;2023-08-07T06:24:50;1.28;;;0.40;;
54143;SDS011;40050;47.324;18.792;2023-08-07T06:26:51;1.38;;;0.40;;
54143;SDS011;40050;47.324;18.792;2023-08-07T06:28:52;1.28;;;0.40;;
54143;SDS011;40050;47.324;18.792;2023-08-07T06:30:53;0.79;;;0.40;;
54143;SDS011;40050;47.324;18.792;2023-08-07T06:32:53;0.69;;;0.40;;
54143;SDS011;40050;47.324;18.792;2023-08-07T06:34:54;0.30;;;0.20;;
54143;SDS011;40050;47.324;18.792;2023-08-07T06:36:55;1.19;;;0.60;;
54143;SDS011;40050;47.324;18.792;2023-08-07T06:38:56;0.59;;;0.50;;
54143;SDS011;40050;47.324;18.792;2023-08-07T06:40:57;3.26;;;0.50;;
54143;SDS011;40050;47.324;18.792;2023-08-07T06:42:58;0.49;;;0.30;;
54143;SDS011;40050;47.324;18.792;2023-08-07T06:45:00;1.09;;;0.40;;
54143;SDS011;40050;47.324;18.792;2023-08-07T06:47:01;1.48;;;0.30;;
54143;SDS011;40050;47.324;18.792;2023-08-07T06:49:03;1.29;;;0.40;;
54143;SDS011;40050;47.324;18.792;2023-08-07T06:51:03;1.19;;;0.40;;
54143;SDS011;40050;47.324;18.792;2023-08-07T06:53:04;0.50;;;0.30;;
54143;SDS011;40050;47.324;18.792;2023-08-07T06:55:06;0.50;;;0.40;;
54143;SDS011;40050;47.324;18.792;2023-08-07T06:57:06;1.68;;;0.40;;
54143;SDS011;40050;47.324;18.792;2023-08-07T06:59:07;0.59;;;0.30;;
54143;SDS011;40050;47.324;18.792;2023-08-07T07:01:08;1.69;;;0.40;;
54143;SDS011;40050;47.324;18.792;2023-08-07T07:03:09;1.69;;;0.30;;
54143;SDS011;40050;47.324;18.792;2023-08-07T07:05:10;0.50;;;0.40;;
54143;SDS011;40050;47.324;18.792;2023-08-07T07:07:11;1.09;;;0.30;;
54143;SDS011;40050;47.324;18.792;2023-08-07T07:09:12;0.40;;;0.40;;
54143;SDS011;40050;47.324;18.792;2023-08-07T07:11:13;2.38;;;0.50;;
54143;SDS011;40050;47.324;18.792;2023-08-07T07:13:13;2.18;;;0.40;;
54143;SDS011;40050;47.324;18.792;2023-08-07T07:15:14;0.59;;;0.30;;
54143;SDS011;40050;47.324;18.792;2023-08-07T07:17:15;0.40;;;0.40;;
54143;SDS011;40050;47.324;18.792;2023-08-07T07:19:16;0.59;;;0.30;;
54143;SDS011;40050;47.324;18.792;2023-08-07T07:21:17;0.40;;;0.30;;
54143;SDS011;40050;47.324;18.792;2023-08-07T07:23:18;2.28;;;0.30;;
54143;SDS011;40050;47.324;18.792;2023-08-07T07:25:19;0.89;;;0.50;;
54143;SDS011;40050;47.324;18.792;2023-08-07T07:27:20;0.50;;;0.30;;
54143;SDS011;40050;47.324;18.792;2023-08-07T07:29:21;0.50;;;0.30;;
54143;SDS011;40050;47.324;18.792;2023-08-07T07:31:22;0.50;;;0.40;;
54143;SDS011;40050;47.324;18.792;2023-08-07T07:33:23;0.69;;;0.30;;
54143;SDS011;40050;47.324;18.792;2023-08-07T07:35:23;0.50;;;0.40;;
54143;SDS011;40050;47.324;18.792;2023-08-07T07:37:24;0.50;;;0.30;;
54143;SDS011;40050;47.324;18.792;2023-08-07T07:39:25;0.60;;;0.30;;
54143;SDS011;40050;47.324;18.792;2023-08-07T07:41:26;0.89;;;0.30;;
54143;SDS011;40050;47.324;18.792;2023-08-07T07:43:27;1.69;;;0.30;;
54143;SDS011;40050;47.324;18.792;2023-08-07T07:45:28;1.79;;;0.30;;
54143;SDS011;40050;47.324;18.792;2023-08-07T07:47:29;1.59;;;0.20;;
54143;SDS011;40050;47.324;18.792;2023-08-07T07:49:30;0.40;;;0.30;;
54143;SDS011;40050;47.324;18.792;2023-08-07T07:51:34;0.89;;;0.40;;
54143;SDS011;40050;47.324;18.792;2023-08-07T07:53:35;0.40;;;0.30;;
54143;SDS011;40050;47.324;18.792;2023-08-07T07:55:36;1.79;;;0.30;;
54143;SDS011;40050;47.324;18.792;2023-08-07T07:57:37;0.30;;;0.30;;
54143;SDS011;40050;47.324;18.792;2023-08-07T07:59:38;1.19;;;0.40;;
54143;SDS011;40050;47.324;18.792;2023-08-07T08:01:39;0.99;;;0.30;;
54143;SDS011;40050;47.324;18.792;2023-08-07T08:03:40;0.89;;;0.30;;
54143;SDS011;40050;47.324;18.792;2023-08-07T08:05:41;0.40;;;0.30;;
54143;SDS011;40050;47.324;18.792;2023-08-07T08:07:42;1.99;;;0.30;;
54143;SDS011;40050;47.324;18.792;2023-08-07T08:09:43;1.29;;;0.30;;
54143;SDS011;40050;47.324;18.792;2023-08-07T08:11:44;1.39;;;0.30;;
54143;SDS011;40050;47.324;18.792;2023-08-07T08:13:46;1.09;;;0.40;;
54143;SDS011;40050;47.324;18.792;2023-08-07T08:15:47;0.99;;;0.30;;
54143;SDS011;40050;47.324;18.792;2023-08-07T08:17:48;0.40;;;0.20;;
54143;SDS011;40050;47.324;18.792;2023-08-07T08:19:49;0.50;;;0.30;;
54143;SDS011;40050;47.324;18.792;2023-08-07T08:21:49;1.19;;;0.30;;
54143;SDS011;40050;47.324;18.792;2023-08-07T08:23:50;0.99;;;0.40;;
54143;SDS011;40050;47.324;18.792;2023-08-07T08:25:51;0.30;;;0.20;;
54143;SDS011;40050;47.324;18.792;2023-08-07T08:27:52;0.50;;;0.30;;
54143;SDS011;40050;47.324;18.792;2023-08-07T08:29:53;0.60;;;0.30;;
54143;SDS011;40050;47.324;18.792;2023-08-07T08:31:54;0.50;;;0.30;;
54143;SDS011;40050;47.324;18.792;2023-08-07T08:33:55;1.29;;;0.40;;
54143;SDS011;40050;47.324;18.792;2023-08-07T08:35:56;0.40;;;0.20;;
54143;SDS011;40050;47.324;18.792;2023-08-07T08:37:57;0.70;;;0.40;;
54143;SDS011;40050;47.324;18.792;2023-08-07T08:39:58;0.79;;;0.20;;
54143;SDS011;40050;47.324;18.792;2023-08-07T08:41:59;0.60;;;0.20;;
54143;SDS011;40050;47.324;18.792;2023-08-07T08:44:05;0.40;;;0.30;;
54143;SDS011;40050;47.324;18.792;2023-08-07T08:46:06;0.70;;;0.20;;
54143;SDS011;40050;47.324;18.792;2023-08-07T08:48:08;0.40;;;0.20;;
54143;SDS011;40050;47.324;18.792;2023-08-07T08:50:14;1.49;;;0.30;;
54143;SDS011;40050;47.324;18.792;2023-08-07T08:52:14;0.30;;;0.30;;
54143;SDS011;40050;47.324;18.792;2023-08-07T08:54:17;0.99;;;0.40;;
54143;SDS011;40050;47.324;18.792;2023-08-07T08:56:17;0.30;;;0.30;;
54143;SDS011;40050;47.324;18.792;2023-08-07T08:58:19;0.20;;;0.20;;
54143;SDS011;40050;47.324;18.792;2023-08-07T09:00:20;0.79;;;0.20;;
54143;SDS011;40050;47.324;18.792;2023-08-07T09:02:22;0.40;;;0.20;;
54143;SDS011;40050;47.324;18.792;2023-08-07T09:04:24;0.60;;;0.20;;
54143;SDS011;40050;47.324;18.792;2023-08-07T09:06:28;1.49;;;0.20;;
54143;SDS011;40050;47.324;18.792;2023-08-07T09:08:29;0.79;;;0.20;;
54143;SDS011;40050;47.324;18.792;2023-08-07T09:10:32;1.29;;;0.10;;
54143;SDS011;40050;47.324;18.792;2023-08-07T09:12:34;1.19;;;0.30;;
54143;SDS011;40050;47.324;18.792;2023-08-07T09:14:35;0.50;;;0.30;;
54143;SDS011;40050;47.324;18.792;2023-08-07T09:16:38;0.70;;;0.20;;
54143;SDS011;40050;47.324;18.792;2023-08-07T09:18:39;0.79;;;0.20;;
54143;SDS011;40050;47.324;18.792;2023-08-07T09:20:40;0.60;;;0.20;;
54143;SDS011;40050;47.324;18.792;2023-08-07T09:22:41;0.20;;;0.20;;
54143;SDS011;40050;47.324;18.792;2023-08-07T09:24:42;0.30;;;0.20;;
54143;SDS011;40050;47.324;18.792;2023-08-07T09:26:43;0.20;;;0.20;;
54143;SDS011;40050;47.324;18.792;2023-08-07T09:28:44;0.40;;;0.30;;
54143;SDS011;40050;47.324;18.792;2023-08-07T09:30:45;0.60;;;0.20;;
54143;SDS011;40050;47.324;18.792;2023-08-07T09:32:49;0.50;;;0.20;;
54143;SDS011;40050;47.324;18.792;2023-08-07T09:34:50;0.99;;;0.20;;
54143;SDS011;40050;47.324;18.792;2023-08-07T09:36:51;0.20;;;0.20;;
54143;SDS011;40050;47.324;18.792;2023-08-07T09:38:53;0.10;;;0.10;;
54143;SDS011;40050;47.324;18.792;2023-08-07T09:40:57;0.50;;;0.10;;
54143;SDS011;40050;47.324;18.792;2023-08-07T09:42:55;0.30;;;0.20;;
54143;SDS011;40050;47.324;18.792;2023-08-07T09:45:18;0.50;;;0.20;;
54143;SDS011;40050;47.324;18.792;2023-08-07T09:47:12;2.89;;;0.20;;
54143;SDS011;40050;47.324;18.792;2023-08-07T09:49:13;1.69;;;0.30;;
54143;SDS011;40050;47.324;18.792;2023-08-07T09:51:17;0.90;;;0.20;;
54143;SDS011;40050;47.324;18.792;2023-08-07T09:53:29;2.59;;;0.30;;
54143;SDS011;40050;47.324;18.792;2023-08-07T09:55:21;1.09;;;0.20;;
54143;SDS011;40050;47.324;18.792;2023-08-07T09:57:26;1.19;;;0.20;;
54143;SDS011;40050;47.324;18.792;2023-08-07T09:59:29;0.20;;;0.20;;
54143;SDS011;40050;47.324;18.792;2023-08-07T10:01:32;0.20;;;0.10;;
54143;SDS011;40050;47.324;18.792;2023-08-07T10:03:32;0.10;;;0.10;;
54143;SDS011;40050;47.324;18.792;2023-08-07T10:05:34;1.29;;;0.10;;
54143;SDS011;40050;47.324;18.792;2023-08-07T10:07:40;0.40;;;0.10;;
54143;SDS011;40050;47.324;18.792;2023-08-07T10:09:37;0.30;;;0.20;;
54143;SDS011;40050;47.324;18.792;2023-08-07T10:11:40;0.30;;;0.10;;
54143;SDS011;40050;47.324;18.792;2023-08-07T10:13:43;0.60;;;0.10;;
54143;SDS011;40050;47.324;18.792;2023-08-07T10:15:44;0.30;;;0.20;;
54143;SDS011;40050;47.324;18.792;2023-08-07T10:17:45;0.40;;;0.10;;
54143;SDS011;40050;47.324;18.792;2023-08-07T10:19:46;0.40;;;0.20;;
54143;SDS011;40050;47.324;18.792;2023-08-07T10:21:47;0.10;;;0.10;;
54143;SDS011;40050;47.324;18.792;2023-08-07T10:23:49;0.90;;;0.20;;
54143;SDS011;40050;47.324;18.792;2023-08-07T10:25:53;0.10;;;0.10;;
54143;SDS011;40050;47.324;18.792;2023-08-07T10:27:55;0.10;;;0.10;;
54143;SDS011;40050;47.324;18.792;2023-08-07T10:29:56;0.30;;;0.10;;
54143;SDS011;40050;47.324;18.792;2023-08-07T10:31:57;0.99;;;0.20;;
54143;SDS011;40050;47.324;18.792;2023-08-07T10:33:58;0.30;;;0.10;;
54143;SDS011;40050;47.324;18.792;2023-08-07T10:36:10;0.20;;;0.10;;
54143;SDS011;40050;47.324;18.792;2023-08-07T10:38:12;0.70;;;0.10;;
54143;SDS011;40050;47.324;18.792;2023-08-07T10:40:25;0.20;;;0.10;;
54143;SDS011;40050;47.324;18.792;2023-08-07T10:42:26;0.30;;;0.10;;
54143;SDS011;40050;47.324;18.792;2023-08-07T10:44:30;0.10;;;0.10;;
54143;SDS011;40050;47.324;18.792;2023-08-07T10:46:46;2.59;;;0.10;;
54143;SDS011;40050;47.324;18.792;2023-08-07T10:48:48;0.10;;;0.10;;
54143;SDS011;40050;47.324;18.792;2023-08-07T10:52:49;0.50;;;0.10;;
54143;SDS011;40050;47.324;18.792;2023-08-07T10:54:50;1.49;;;0.10;;
54143;SDS011;40050;47.324;18.792;2023-08-07T10:57:01;0.20;;;0.10;;
54143;SDS011;40050;47.324;18.792;2023-08-07T10:59:09;1.00;;;0.20;;
54143;SDS011;40050;47.324;18.792;2023-08-07T11:01:20;0.99;;;0.30;;
54143;SDS011;40050;47.324;18.792;2023-08-07T11:03:07;1.69;;;0.10;;
54143;SDS011;40050;47.324;18.792;2023-08-07T11:05:08;0.20;;;0.20;;
54143;SDS011;40050;47.324;18.792;2023-08-07T11:07:10;0.20;;;0.20;;
54143;SDS011;40050;47.324;18.792;2023-08-07T11:09:11;0.70;;;0.30;;
54143;SDS011;40050;47.324;18.792;2023-08-07T11:11:12;0.20;;;0.10;;
54143;SDS011;40050;47.324;18.792;2023-08-07T11:13:14;0.30;;;0.10;;
54143;SDS011;40050;47.324;18.792;2023-08-07T11:15:15;0.20;;;0.20;;
54143;SDS011;40050;47.324;18.792;2023-08-07T11:17:17;1.09;;;0.20;;
54143;SDS011;40050;47.324;18.792;2023-08-07T11:19:19;0.70;;;0.20;;
54143;SDS011;40050;47.324;18.792;2023-08-07T11:21:20;0.60;;;0.20;;
54143;SDS011;40050;47.324;18.792;2023-08-07T11:23:24;0.10;;;0.10;;
54143;SDS011;40050;47.324;18.792;2023-08-07T11:25:22;0.20;;;0.20;;
54143;SDS011;40050;47.324;18.792;2023-08-07T11:27:23;0.20;;;0.10;;
54143;SDS011;40050;47.324;18.792;2023-08-07T11:29:24;3.18;;;0.20;;
54143;SDS011;40050;47.324;18.792;2023-08-07T11:31:27;0.10;;;0.10;;
54143;SDS011;40050;47.324;18.792;2023-08-07T11:33:28;0.50;;;0.10;;
54143;SDS011;40050;47.324;18.792;2023-08-07T11:35:28;0.40;;;0.20;;
54143;SDS011;40050;47.324;18.792;2023-08-07T11:37:29;0.20;;;0.20;;
54143;SDS011;40050;47.324;18.792;2023-08-07T11:39:30;0.40;;;0.30;;
54143;SDS011;40050;47.324;18.792;2023-08-07T11:41:33;0.10;;;0.10;;
54143;SDS011;40050;47.324;18.792;2023-08-07T11:43:34;1.49;;;0.20;;
54143;SDS011;40050;47.324;18.792;2023-08-07T11:45:35;0.60;;;0.20;;
54143;SDS011;40050;47.324;18.792;2023-08-07T11:47:36;1.19;;;0.20;;
54143;SDS011;40050;47.324;18.792;2023-08-07T11:49:38;0.89;;;0.40;;
54143;SDS011;40050;47.324;18.792;2023-08-07T11:51:39;0.89;;;0.20;;
54143;SDS011;40050;47.324;18.792;2023-08-07T11:53:40;1.99;;;0.20;;
54143;SDS011;40050;47.324;18.792;2023-08-07T11:56:14;1.09;;;0.20;;
54143;SDS011;40050;47.324;18.792;2023-08-07T11:57:48;1.29;;;0.20;;
54143;SDS011;40050;47.324;18.792;2023-08-07T11:59:49;1.39;;;0.30;;
54143;SDS011;40050;47.324;18.792;2023-08-07T12:01:51;0.60;;;0.20;;
54143;SDS011;40050;47.324;18.792;2023-08-07T12:04:09;2.09;;;0.30;;
54143;SDS011;40050;47.324;18.792;2023-08-07T12:05:57;0.20;;;0.20;;